Chukotavia DHC6 at Anadyr on Feb 5th 2014, runway excursion on landing

Last Update: June 23, 2015 / 14:07:37 GMT/Zulu time

Bookmark this article
Incident Facts

Date of incident
Feb 5, 2014

Classification
Accident

Airline
Chukotavia

Destination
Anadyr, Russia

Aircraft Registration
RA-67282

ICAO Type Designator
DHC6

Airport ICAO Code
UHMA

A Chukotavia de Havilland DHC-6-400 Twin Otter, registration RA-67282 performing a flight from Zaliv Kresta to Anadyr (Russia) with 7 passengers and 2 crew, landed on Anadyr's runway but veered off the runway at about 14:18L (02:18Z) and came to a stop with the nose gear collapsed. There were no injuries, the aircraft received substantial damage.

The airport reported the aircraft had already touched down and was in the roll out when a strong gust of wind caused the aircraft to veer off the runway.

On Jun 23rd 2015 Russia's Far Eastern Transport Investigation Department reported, that the commander, pilot flying, lowered the nose onto the runway without decrabbing the aircraft causing the aircraft to veer off the runway while landing in strong cross wind. The aircraft received damage of about 75 million rubels (about 1.2 million Euros, 1.4 million USD). A criminal case has been brought forward against the commander.

To date (Jun 23rd 2015) the Interstate Aviation Committee (MAK) have not released a note that they are investigating the occurrence.

Anadyr features a runway 01/19 of 3500 meters/11480 feet length.

Metars:
UHMA 050400Z 13007G12MPS 9999 FEW013 OVC080 M04/M06 Q1026 NOSIG RMK QFE766/1021 MT OBSC 881///59=
UHMA 050330Z 11007G12MPS 9999 FEW013 BKN061 OVC080 M04/M06 Q1026 NOSIG RMK QFE766/1021 MT OBSC 881///59=
UHMA 050300Z 11008G13MPS 9999 FEW013 SCT059 OVC080 M04/M06 Q1026 NOSIG RMK QFE764/1019 MT OBSC 881///59=
UHMA 050230Z 11007G12MPS 9999 FEW013 OVC080 M04/M07 Q1026 NOSIG RMK QFE764/1019 MT OBSC 881///59=
UHMA 050200Z 12007G12MPS 9999 FEW013 OVC080 M04/M07 Q1026 NOSIG RMK QFE764/1019 MT OBSC 881///59=
UHMA 050130Z 12007G12MPS 9999 FEW013 OVC080 M04/M07 Q1026 NOSIG RMK QFE764/1019 MT OBSC 881///59=
UHMA 050100Z 11007G12MPS 9999 DRSN SCT013 OVC080 M04/M06 Q1026 NOSIG RMK QFE764/1018 MT OBSC 883///55=
UHMA 050030Z 12007G12MPS 9999 DRSN SCT013 OVC080 M04/M07 Q1026 NOSIG RMK QFE764/1018 MT OBSC 883///55=
UHMA 050000Z 12007G12MPS 9999 FEW013 OVC080 M04/M07 Q1026 NOSIG RMK QFE764/1018 MT OBSC 883///55=
UHMA 042330Z 11007G12MPS 9999 FEW013 OVC080 M04/M07 Q1026 NOSIG RMK QFE764/1019 MT OBSC 883///55=
UHMA 042300Z 12007G12MPS 9999 FEW013 OVC080 M04/M06 Q1026 NOSIG RMK QFE764/1019 MT OBSC 883///55=
Aircraft Registration Data
Registration mark
RA-67282
Country of Registration
Russia
Date of Registration
Cegqqmqnc dnjg A Subscribe to unlock
Certification Basis
Manufacturer
Aircraft Model / Type
DHC-6 Series 400 Twin Otter
ICAO Aircraft Type
DHC6
Serial Number
Engine Count
Incident Facts

Date of incident
Feb 5, 2014

Classification
Accident

Airline
Chukotavia

Destination
Anadyr, Russia

Aircraft Registration
RA-67282

ICAO Type Designator
DHC6

Airport ICAO Code
UHMA

This article is published under license from Avherald.com. © of text by Avherald.com.
Article source

You can read 2 more free articles without a subscription.

Subscribe now and continue reading without any limits!

Are you a subscriber? Login
Subscribe

Read unlimited articles and receive our daily update briefing. Gain better insights into what is happening in commercial aviation safety.

Send tip

Support AeroInside by sending a small tip amount.

Related articles

Newest articles

Subscribe today

Are you researching aviation incidents? Get access to AeroInside Insights, unlimited read access and receive the daily newsletter.

Pick your plan and subscribe

Partner

Blockaviation logo

A new way to document and demonstrate airworthiness compliance and aircraft value. Find out more.

ELITE Logo

ELITE Simulation Solutions is a leading global provider of Flight Simulation Training Devices, IFR training software as well as flight controls and related services. Find out more.

Blue Altitude Logo

Your regulation partner, specialists in aviation safety and compliance; providing training, auditing, and consultancy services. Find out more.

AeroInside Blog
Popular aircraft
Airbus A320
Boeing 737-800
Boeing 737-800 MAX
Popular airlines
American Airlines
United
Delta
Air Canada
Lufthansa
British Airways